Time;durP1;ratioP1;P1;durP2;ratioP2;P2;SDS_P1;SDS_P2;PMS_P1;PMS_P2;Temp;Humidity;BMP_temperature;BMP_pressure;BME280_temperature;BME280_humidity;BME280_pressure;Samples;Min_cycle;Max_cycle;Signal;HPM_P1;HPM_P2
2023/06/14 00:00:05;;;;;;;3.60;3.22;;;;;;;16.16;47.47;95989.44;4950442;28;20230;-60
2023/06/14 00:02:31;;;;;;;3.95;3.55;;;;;;;16.18;47.93;95990.09;4950699;28;20219;-60
2023/06/14 00:04:59;;;;;;;3.35;3.13;;;;;;;16.16;48.54;95994.78;4939472;29;20222;-60
2023/06/14 00:07:35;;;;;;;3.83;3.53;;;;;;;16.24;46.89;95986.66;4939771;29;20273;-60
2023/06/14 00:10:04;;;;;;;3.83;3.50;;;;;;;16.19;47.12;95989.91;4941964;29;20203;-60
2023/06/14 00:12:30;;;;;;;4.65;3.55;;;;;;;16.23;48.22;95991.16;4949424;29;20238;-61
2023/06/14 00:14:58;;;;;;;3.60;3.30;;;;;;;16.28;47.57;95986.09;4941383;28;20548;-60
2023/06/14 00:17:30;;;;;;;3.70;3.40;;;;;;;16.13;47.80;95996.00;4939631;29;20245;-61
2023/06/14 00:19:56;;;;;;;4.25;3.30;;;;;;;16.18;48.99;95985.59;4951703;29;20227;-61
2023/06/14 00:22:24;;;;;;;4.13;3.53;;;;;;;16.19;48.48;95983.75;4950719;29;20234;-60
2023/06/14 00:24:50;;;;;;;3.45;3.13;;;;;;;16.16;49.88;95979.63;4940535;29;20211;-60
2023/06/14 00:27:18;;;;;;;4.63;3.60;;;;;;;16.09;48.46;95981.41;4939128;29;20221;-60
2023/06/14 00:29:45;;;;;;;4.35;3.40;;;;;;;16.01;49.50;95975.41;4949888;29;20211;-59
2023/06/14 00:32:11;;;;;;;3.88;3.50;;;;;;;16.12;49.22;95977.56;4942966;29;20281;-60
2023/06/14 00:34:38;;;;;;;3.42;3.03;;;;;;;16.16;49.22;95979.63;4940470;29;20222;-60
2023/06/14 00:37:05;;;;;;;3.63;3.30;;;;;;;15.97;50.17;95976.81;4950774;29;20225;-60
2023/06/14 00:39:32;;;;;;;5.47;4.07;;;;;;;15.87;49.92;95977.94;4949682;28;20226;-60
2023/06/14 00:41:59;;;;;;;3.45;3.15;;;;;;;15.77;50.43;95968.63;4951012;29;20207;-61
2023/06/14 00:44:26;;;;;;;3.70;3.40;;;;;;;15.75;50.92;95971.50;4942953;29;20207;-60
2023/06/14 00:46:54;;;;;;;4.63;3.72;;;;;;;15.69;50.38;95977.59;4949734;29;20210;-60
2023/06/14 00:49:22;;;;;;;5.22;3.40;;;;;;;15.62;51.25;95971.38;4943220;29;20290;-60
2023/06/14 00:51:48;;;;;;;4.38;3.90;;;;;;;15.63;51.25;95972.16;4944069;29;20207;-59
2023/06/14 00:54:15;;;;;;;3.73;3.43;;;;;;;15.57;52.06;95972.94;4939047;29;20218;-60
2023/06/14 00:56:41;;;;;;;5.30;3.77;;;;;;;15.54;52.10;95974.16;4946045;29;20218;-60
2023/06/14 00:59:08;;;;;;;3.73;3.50;;;;;;;15.48;52.36;95977.53;4949040;29;20237;-60
2023/06/14 01:01:38;;;;;;;4.63;3.80;;;;;;;15.46;52.72;95974.22;4947426;29;20246;-60
2023/06/14 01:04:05;;;;;;;4.00;3.37;;;;;;;15.46;50.93;95979.56;4940704;29;20211;-60
2023/06/14 01:06:41;;;;;;;3.87;3.50;;;;;;;15.34;50.38;95975.72;4940099;29;20270;-60
2023/06/14 01:09:13;;;;;;;3.83;3.43;;;;;;;15.30;52.46;95977.16;4956861;28;20296;-60
2023/06/14 01:11:46;;;;;;;4.10;3.47;;;;;;;15.22;52.00;95974.59;4941896;29;20294;-60
2023/06/14 01:14:13;;;;;;;3.70;3.38;;;;;;;15.25;52.24;95979.53;4938879;29;20296;-59
2023/06/14 01:16:41;;;;;;;4.17;3.73;;;;;;;15.13;53.82;95970.38;4951244;29;20214;-60
2023/06/14 01:19:12;;;;;;;3.90;3.30;;;;;;;15.09;52.03;95971.78;4948857;29;20218;-60
2023/06/14 01:21:42;;;;;;;4.20;3.43;;;;;;;15.09;53.51;95969.91;4939175;29;20227;-59
2023/06/14 01:24:10;;;;;;;4.97;3.37;;;;;;;15.10;53.21;95970.75;4939324;29;20215;-60
2023/06/14 01:26:37;;;;;;;4.30;3.80;;;;;;;15.03;53.08;95965.34;4938790;29;20215;-60
2023/06/14 01:29:04;;;;;;;4.43;3.73;;;;;;;14.92;54.45;95976.47;4944672;29;20648;-60
2023/06/14 01:31:39;;;;;;;3.83;3.50;;;;;;;14.90;54.49;95966.03;4939262;29;20211;-61
2023/06/14 01:34:06;;;;;;;4.03;3.37;;;;;;;14.84;53.59;95974.75;4939785;29;20644;-60
2023/06/14 01:36:32;;;;;;;4.00;3.60;;;;;;;14.82;54.18;95971.44;4947264;29;20212;-60
2023/06/14 01:39:00;;;;;;;3.67;3.37;;;;;;;14.81;55.08;95976.94;4966520;29;20206;-60
2023/06/14 01:41:27;;;;;;;5.20;3.60;;;;;;;14.71;54.10;95969.25;4948519;29;20275;-60
2023/06/14 01:43:55;;;;;;;3.80;3.50;;;;;;;14.65;53.83;95964.69;4948113;29;20211;-61
2023/06/14 01:46:22;;;;;;;3.83;3.13;;;;;;;14.58;55.16;95969.09;4954330;29;20217;-60
2023/06/14 01:48:48;;;;;;;4.70;3.63;;;;;;;14.59;56.40;95968.09;4957215;28;20202;-61
2023/06/14 01:51:15;;;;;;;3.67;3.37;;;;;;;14.57;55.11;95970.09;4953923;29;20213;-60
2023/06/14 01:53:41;;;;;;;4.03;3.63;;;;;;;14.45;56.33;95969.72;4954246;29;20210;-61
2023/06/14 01:56:08;;;;;;;3.77;3.47;;;;;;;14.47;55.26;95963.41;4950803;29;20219;-60
2023/06/14 01:58:36;;;;;;;3.73;3.47;;;;;;;14.32;55.22;95971.34;4956775;29;20282;-61
2023/06/14 02:01:05;;;;;;;4.43;3.70;;;;;;;14.18;54.93;95964.16;4947088;29;20246;-61
2023/06/14 02:03:32;;;;;;;4.63;3.43;;;;;;;14.10;55.24;95970.38;4950042;28;20547;-60
2023/06/14 02:05:58;;;;;;;3.90;3.50;;;;;;;14.16;57.50;95960.88;4937655;29;20371;-60
2023/06/14 02:08:25;;;;;;;3.40;3.20;;;;;;;14.24;57.58;95968.78;4948326;29;20219;-60
2023/06/14 02:10:52;;;;;;;4.00;3.57;;;;;;;14.24;57.14;95968.78;4937380;29;21019;-59
2023/06/14 02:13:18;;;;;;;4.47;3.60;;;;;;;14.25;57.43;95970.41;4937615;29;20262;-60
2023/06/14 02:15:52;;;;;;;4.20;3.13;;;;;;;14.24;57.68;95968.78;4937240;29;20211;-59
2023/06/14 02:18:19;;;;;;;3.90;3.23;;;;;;;14.18;56.91;95974.81;4946280;29;20289;-60
2023/06/14 02:20:46;;;;;;;3.77;3.47;;;;;;;14.17;57.85;95975.84;4937463;29;20326;-60
2023/06/14 02:23:15;;;;;;;3.90;3.60;;;;;;;14.21;58.10;95971.78;4941259;29;20768;-60
2023/06/14 02:25:42;;;;;;;3.90;3.60;;;;;;;14.16;57.29;95971.50;4956482;29;20211;-60
2023/06/14 02:28:09;;;;;;;3.97;3.67;;;;;;;14.01;57.33;95971.47;4956188;29;20246;-60
2023/06/14 02:30:36;;;;;;;4.70;3.90;;;;;;;14.07;57.52;95972.56;4956177;29;20218;-61
2023/06/14 02:33:04;;;;;;;3.83;3.53;;;;;;;14.08;57.20;95972.41;4956523;29;20305;-60
2023/06/14 02:35:30;;;;;;;4.90;3.77;;;;;;;14.08;58.16;95974.25;4950671;28;20214;-60
2023/06/14 02:37:58;;;;;;;4.23;3.70;;;;;;;13.99;57.94;95976.16;4956116;29;20218;-60
2023/06/14 02:40:25;;;;;;;3.87;3.57;;;;;;;13.99;59.01;95975.34;4946678;29;20563;-59
2023/06/14 02:42:51;;;;;;;3.80;3.50;;;;;;;13.99;57.49;95975.34;4955778;29;20215;-60
2023/06/14 02:45:18;;;;;;;4.30;3.90;;;;;;;13.86;56.67;95971.44;4955744;29;20218;-60
2023/06/14 02:47:45;;;;;;;3.97;3.63;;;;;;;13.94;58.74;95978.53;4956027;28;20210;-60
2023/06/14 02:50:13;;;;;;;5.30;3.97;;;;;;;13.88;58.15;95979.25;4950700;29;20290;-60
2023/06/14 02:52:41;;;;;;;3.90;3.60;;;;;;;13.90;58.35;95978.06;4955060;29;20221;-60
2023/06/14 02:55:09;;;;;;;5.47;3.63;;;;;;;13.90;58.96;95978.06;4955155;29;20603;-60
2023/06/14 02:57:35;;;;;;;4.70;3.33;;;;;;;13.87;57.20;95978.41;4942834;29;20219;-60
2023/06/14 03:00:02;;;;;;;4.77;3.97;;;;;;;13.76;58.71;95984.16;4936693;29;20215;-60
2023/06/14 03:02:29;;;;;;;5.57;4.00;;;;;;;13.81;57.62;95995.09;4937433;29;20249;-60
2023/06/14 03:05:01;;;;;;;3.73;3.43;;;;;;;13.71;59.45;95983.06;4949930;29;20234;-60
2023/06/14 03:07:29;;;;;;;4.00;3.70;;;;;;;13.71;58.49;95994.47;4949843;29;20265;-60
2023/06/14 03:09:57;;;;;;;5.43;3.60;;;;;;;13.68;58.43;95994.84;4952653;28;20278;-60
2023/06/14 03:12:24;;;;;;;3.90;3.60;;;;;;;13.64;58.51;95998.06;4953069;29;20242;-59
2023/06/14 03:14:51;;;;;;;3.77;3.47;;;;;;;13.58;59.53;95999.56;4947044;29;20211;-60
2023/06/14 03:17:19;;;;;;;4.00;3.60;;;;;;;13.61;60.66;95993.91;4966495;29;20210;-60
2023/06/14 03:19:45;;;;;;;4.83;4.33;;;;;;;13.57;58.63;95994.44;4982025;29;20246;-61
2023/06/14 03:22:13;;;;;;;4.70;4.27;;;;;;;13.58;59.51;96004.88;4979191;29;20302;-60
2023/06/14 03:24:42;;;;;;;3.60;3.30;;;;;;;13.55;58.88;96002.59;4970361;29;20202;-60
2023/06/14 03:27:09;;;;;;;3.93;3.53;;;;;;;13.51;60.53;96003.94;4965367;28;20280;-61
2023/06/14 03:29:36;;;;;;;4.40;3.40;;;;;;;13.51;60.27;96008.41;4945652;29;20234;-60
2023/06/14 03:32:04;;;;;;;6.27;3.57;;;;;;;13.53;59.92;96017.06;4939916;29;20215;-60
2023/06/14 03:34:30;;;;;;;3.80;3.50;;;;;;;13.49;59.90;96016.59;4940973;29;20211;-60
2023/06/14 03:36:57;;;;;;;5.40;3.80;;;;;;;13.45;60.33;96020.59;4940394;29;20210;-60
2023/06/14 03:39:23;;;;;;;3.93;3.60;;;;;;;13.43;60.54;96011.94;4942600;29;20548;-60
2023/06/14 03:41:51;;;;;;;4.27;3.70;;;;;;;13.46;61.33;96011.63;4945646;29;20227;-60
2023/06/14 03:44:18;;;;;;;4.80;3.70;;;;;;;13.43;60.31;96011.94;4958895;29;20207;-60
2023/06/14 03:46:45;;;;;;;3.90;3.50;;;;;;;13.38;61.18;96009.84;4956262;29;20210;-61
2023/06/14 03:49:11;;;;;;;4.17;3.77;;;;;;;13.42;62.13;96021.78;4956614;29;20296;-60
2023/06/14 03:51:39;;;;;;;5.60;5.10;;;;;;;13.39;61.77;96029.25;4952718;29;20269;-61
2023/06/14 03:54:06;;;;;;;11.23;5.90;;;;;;;13.43;62.34;96023.41;4939903;29;20215;-60
2023/06/14 03:56:34;;;;;;;9.03;3.80;;;;;;;13.44;61.50;96019.75;4945653;29;20212;-59
2023/06/14 03:59:02;;;;;;;4.20;3.70;;;;;;;13.48;63.59;96024.72;4952890;29;20211;-60
2023/06/14 04:01:29;;;;;;;3.87;3.57;;;;;;;13.50;63.37;96036.00;4952548;29;20222;-60
2023/06/14 04:03:57;;;;;;;5.00;3.60;;;;;;;13.61;63.18;96025.78;4939659;29;20723;-60
2023/06/14 04:06:24;;;;;;;4.33;3.93;;;;;;;13.75;62.79;96032.97;4956866;29;20570;-59
2023/06/14 04:08:51;;;;;;;4.23;3.80;;;;;;;13.68;61.81;96033.88;4945658;29;20263;-60
2023/06/14 04:11:20;;;;;;;4.67;3.80;;;;;;;13.74;64.19;96036.66;4945653;29;20637;-60
2023/06/14 04:13:47;;;;;;;4.50;4.10;;;;;;;13.81;61.72;96032.28;4957233;29;20206;-60
2023/06/14 04:16:15;;;;;;;6.10;3.83;;;;;;;13.87;65.06;96041.38;4949381;29;20238;-60
2023/06/14 04:18:41;;;;;;;4.23;3.83;;;;;;;13.90;64.78;96041.84;4939816;29;20207;-59
2023/06/14 04:21:08;;;;;;;4.47;3.87;;;;;;;14.00;63.39;96046.09;4938819;29;20235;-60
2023/06/14 04:23:34;;;;;;;4.70;3.53;;;;;;;14.03;63.34;96045.75;4940388;29;20211;-60
2023/06/14 04:26:02;;;;;;;6.03;3.60;;;;;;;14.11;63.74;96053.63;4950847;29;20213;-60
2023/06/14 04:28:29;;;;;;;9.40;3.90;;;;;;;14.18;64.71;96051.91;4951688;29;20215;-60
2023/06/14 04:30:56;;;;;;;6.17;4.40;;;;;;;14.24;64.65;96053.88;4947258;29;20204;-60
2023/06/14 04:33:25;;;;;;;4.37;3.97;;;;;;;14.33;67.04;96064.25;4945800;29;20211;-61
2023/06/14 04:35:53;;;;;;;4.60;3.63;;;;;;;14.48;66.18;96061.66;4961055;29;20210;-60
2023/06/14 04:38:23;;;;;;;5.33;3.67;;;;;;;14.54;67.03;96070.72;4939612;29;20289;-59
2023/06/14 04:40:52;;;;;;;4.27;3.93;;;;;;;14.65;67.06;96059.66;4939367;29;20226;-60
2023/06/14 04:43:27;;;;;;;3.83;3.50;;;;;;;14.84;65.20;96062.59;4939221;29;20262;-59
2023/06/14 04:45:54;;;;;;;3.93;3.63;;;;;;;14.98;66.45;96063.63;4945467;29;20211;-61
2023/06/14 04:48:24;;;;;;;4.87;3.90;;;;;;;14.98;65.51;96068.13;4941586;29;20207;-59
2023/06/14 04:50:52;;;;;;;6.67;3.80;;;;;;;15.16;66.96;96071.22;4939883;28;20203;-60
2023/06/14 04:53:21;;;;;;;4.20;3.80;;;;;;;15.22;67.80;96073.97;4939144;29;20238;-60
2023/06/14 04:55:48;;;;;;;3.63;3.30;;;;;;;15.33;66.62;96078.00;4956246;29;20214;-59
2023/06/14 04:58:15;;;;;;;4.23;3.83;;;;;;;15.43;65.83;96078.53;4945464;29;20212;-60
2023/06/14 05:00:43;;;;;;;4.07;3.67;;;;;;;15.52;62.82;96082.75;4945768;29;20211;-60
2023/06/14 05:03:12;;;;;;;7.07;3.87;;;;;;;15.60;62.15;96082.66;4938991;29;20211;-60
2023/06/14 05:05:41;;;;;;;4.23;3.83;;;;;;;15.74;62.61;96086.28;4940672;29;20221;-61
2023/06/14 05:08:07;;;;;;;3.90;3.60;;;;;;;15.89;59.73;96079.91;4944096;29;20230;-61
2023/06/14 05:10:34;;;;;;;3.83;3.53;;;;;;;16.02;60.33;96086.38;4938756;29;20297;-60
2023/06/14 05:13:01;;;;;;;3.70;3.40;;;;;;;16.23;58.86;96081.03;4951583;29;20213;-60
2023/06/14 05:15:28;;;;;;;7.45;3.60;;;;;;;16.43;53.06;96085.56;4943334;29;20230;-60
2023/06/14 05:17:55;;;;;;;4.40;3.43;;;;;;;16.63;51.59;96080.38;4947907;29;20235;-60
2023/06/14 05:20:23;;;;;;;6.23;4.03;;;;;;;16.79;52.68;96088.09;4941647;29;20239;-59
2023/06/14 05:22:53;;;;;;;3.50;3.30;;;;;;;17.04;50.23;96093.00;4938563;29;20258;-60
2023/06/14 05:25:20;;;;;;;3.95;3.65;;;;;;;17.22;48.50;96093.28;4938623;29;20290;-60
2023/06/14 05:27:46;;;;;;;5.13;4.20;;;;;;;17.44;48.84;96092.19;4943762;29;20531;-60
2023/06/14 05:30:14;;;;;;;5.82;3.67;;;;;;;17.65;47.34;96092.09;4941803;29;20532;-60
2023/06/14 05:32:41;;;;;;;8.43;3.92;;;;;;;17.78;46.37;96092.13;4938528;29;20218;-60
2023/06/14 05:35:08;;;;;;;7.20;3.97;;;;;;;18.01;46.29;96101.66;4938083;29;20608;-60
2023/06/14 05:37:35;;;;;;;4.88;3.72;;;;;;;18.21;45.20;96100.66;4939860;29;20203;-62
2023/06/14 05:40:06;;;;;;;5.55;4.07;;;;;;;18.41;45.36;96106.06;4948734;29;20203;-61
2023/06/14 05:42:32;;;;;;;7.25;4.05;;;;;;;18.59;43.78;96100.13;4942247;29;20223;-62
2023/06/14 05:44:59;;;;;;;4.82;3.95;;;;;;;18.62;41.86;96108.59;4940313;29;20211;-62
2023/06/14 05:47:25;;;;;;;6.22;3.83;;;;;;;18.68;41.86;96107.75;4951316;29;20598;-61
2023/06/14 05:49:52;;;;;;;5.30;3.50;;;;;;;18.89;43.13;96109.38;4962742;29;20207;-61
2023/06/14 05:52:18;;;;;;;5.63;3.83;;;;;;;19.16;44.00;96112.88;4964297;29;20879;-59
2023/06/14 05:54:45;;;;;;;3.70;3.40;;;;;;;19.33;42.32;96111.38;4960122;29;20198;-59
2023/06/14 05:57:12;;;;;;;5.53;3.97;;;;;;;19.48;41.99;96103.94;4961400;29;20207;-58
2023/06/14 05:59:40;;;;;;;3.80;3.30;;;;;;;19.69;41.87;96108.22;4963169;29;20218;-60
2023/06/14 06:02:06;;;;;;;6.15;3.42;;;;;;;19.91;41.81;96104.16;4941298;29;20231;-59
2023/06/14 06:04:34;;;;;;;3.67;3.38;;;;;;;20.11;41.72;96109.44;4953800;29;20210;-60
2023/06/14 06:07:01;;;;;;;3.92;3.40;;;;;;;20.27;41.21;96111.59;4956271;29;20306;-60
2023/06/14 06:09:27;;;;;;;4.18;3.40;;;;;;;20.43;40.64;96107.63;4956296;29;20607;-60
2023/06/14 06:11:55;;;;;;;3.53;3.20;;;;;;;20.64;41.02;96112.63;4956356;29;20241;-60
2023/06/14 06:14:23;;;;;;;6.55;3.60;;;;;;;20.90;40.89;96122.34;4956904;29;20242;-60
2023/06/14 06:16:52;;;;;;;5.78;3.42;;;;;;;20.98;38.82;96114.00;4956112;28;20218;-61
2023/06/14 06:19:18;;;;;;;3.97;3.47;;;;;;;21.30;38.98;96118.25;4956763;28;20218;-59
2023/06/14 06:21:45;;;;;;;7.15;3.60;;;;;;;21.18;37.67;96115.50;4956012;29;20738;-59
2023/06/14 06:24:11;;;;;;;4.00;3.70;;;;;;;21.49;37.73;96125.31;4955357;29;20546;-59
2023/06/14 06:26:39;;;;;;;4.10;3.80;;;;;;;21.81;38.07;96124.13;4956195;29;20293;-59
2023/06/14 06:29:06;;;;;;;5.97;3.88;;;;;;;21.98;37.93;96128.91;4951716;29;20214;-59
2023/06/14 06:31:36;;;;;;;4.45;3.60;;;;;;;22.17;36.71;96130.53;4955322;29;20210;-60
2023/06/14 06:34:02;;;;;;;6.43;3.83;;;;;;;22.26;36.95;96126.44;4954258;29;20548;-60
2023/06/14 06:36:29;;;;;;;4.10;3.80;;;;;;;22.44;36.71;96123.72;4956588;29;20222;-59
2023/06/14 06:38:55;;;;;;;7.53;3.80;;;;;;;22.74;36.95;96124.50;4955852;29;20210;-60
2023/06/14 06:41:22;;;;;;;4.10;3.80;;;;;;;22.64;35.24;96123.41;4956038;29;20723;-59
2023/06/14 06:43:48;;;;;;;7.13;3.60;;;;;;;22.83;36.13;96124.19;4959224;28;20210;-58
2023/06/14 06:46:15;;;;;;;3.83;3.45;;;;;;;23.02;34.59;96120.34;4961340;29;20202;-59
2023/06/14 06:48:43;;;;;;;7.05;3.75;;;;;;;23.09;35.27;96121.06;4961366;29;20218;-58
2023/06/14 06:51:09;;;;;;;4.32;3.80;;;;;;;23.30;34.11;96125.88;4962190;28;20309;-59
2023/06/14 06:53:35;;;;;;;4.65;3.92;;;;;;;23.46;34.86;96127.88;4961589;29;20530;-60
2023/06/14 06:56:02;;;;;;;4.43;3.88;;;;;;;23.62;34.74;96137.97;4948403;29;20274;-60
2023/06/14 06:58:28;;;;;;;4.13;3.72;;;;;;;23.13;34.57;96133.03;4943366;29;20206;-59
2023/06/14 07:00:55;;;;;;;5.43;3.55;;;;;;;23.58;34.13;96136.78;4943268;29;20206;-59
2023/06/14 07:03:23;;;;;;;6.30;3.75;;;;;;;23.62;34.08;96140.66;4945503;29;20226;-59
2023/06/14 07:05:51;;;;;;;4.00;3.65;;;;;;;23.80;35.33;96137.00;4953579;28;20214;-61
2023/06/14 07:08:17;;;;;;;4.78;3.78;;;;;;;23.99;34.92;96137.63;4943500;29;20222;-61
2023/06/14 07:10:44;;;;;;;3.85;3.42;;;;;;;24.15;33.76;96136.94;4943277;29;20226;-60
2023/06/14 07:13:10;;;;;;;4.05;3.65;;;;;;;24.08;34.78;96141.63;4956924;29;20659;-61
2023/06/14 07:15:37;;;;;;;5.25;3.60;;;;;;;24.21;32.48;96135.97;4952399;29;20211;-60
2023/06/14 07:18:04;;;;;;;5.30;3.58;;;;;;;24.42;34.45;96143.41;4953305;29;20203;-59
2023/06/14 07:20:32;;;;;;;4.50;3.70;;;;;;;24.44;33.56;96141.28;4952769;29;20226;-61
2023/06/14 07:23:00;;;;;;;4.53;3.92;;;;;;;24.61;33.66;96142.16;4957342;28;20246;-59
2023/06/14 07:25:28;;;;;;;5.13;4.10;;;;;;;24.54;32.78;96138.78;4946616;29;20293;-59
2023/06/14 07:27:54;;;;;;;4.88;3.65;;;;;;;24.64;32.87;96151.66;4949700;29;20203;-59
2023/06/14 07:30:25;;;;;;;3.83;3.40;;;;;;;24.68;34.43;96147.41;4945851;29;20522;-59
2023/06/14 07:32:52;;;;;;;6.35;3.60;;;;;;;24.77;32.86;96141.34;4955763;29;20294;-60
2023/06/14 07:35:18;;;;;;;5.88;3.80;;;;;;;25.12;32.98;96143.84;4945169;29;20235;-60
2023/06/14 07:37:46;;;;;;;5.03;3.53;;;;;;;25.29;30.74;96143.84;4954429;28;20222;-60
2023/06/14 07:40:14;;;;;;;7.63;3.80;;;;;;;25.20;30.89;96142.63;4958595;29;20350;-59
2023/06/14 07:42:41;;;;;;;6.70;4.03;;;;;;;25.31;31.08;96151.72;4951567;29;20231;-61
2023/06/14 07:45:08;;;;;;;6.63;3.58;;;;;;;25.51;31.07;96147.44;4959001;29;20218;-60
2023/06/14 07:47:34;;;;;;;3.63;3.33;;;;;;;25.52;31.32;96153.69;4953287;28;20203;-60
2023/06/14 07:50:01;;;;;;;4.68;3.17;;;;;;;25.64;32.14;96155.25;4954424;28;20635;-61
2023/06/14 07:52:28;;;;;;;4.57;3.60;;;;;;;25.74;31.01;96152.69;4943455;29;20207;-59
2023/06/14 07:54:56;;;;;;;3.88;3.42;;;;;;;25.91;30.02;96151.81;4951141;29;20213;-61
2023/06/14 07:57:24;;;;;;;5.15;3.55;;;;;;;25.38;28.96;96147.78;4940061;28;20215;-60
2023/06/14 07:59:51;;;;;;;5.05;3.28;;;;;;;25.56;29.34;96150.25;4953447;29;20659;-60
2023/06/14 08:02:18;;;;;;;4.22;3.10;;;;;;;25.89;30.97;96151.25;4952143;29;20271;-59
2023/06/14 08:04:45;;;;;;;4.85;3.05;;;;;;;25.85;29.35;96147.41;4946420;29;20208;-60
2023/06/14 08:07:12;;;;;;;7.20;3.70;;;;;;;26.26;30.06;96143.31;4938639;29;20245;-60
2023/06/14 08:09:38;;;;;;;4.05;3.63;;;;;;;25.99;28.94;96144.06;4939693;29;20215;-60
2023/06/14 08:12:07;;;;;;;3.75;3.45;;;;;;;25.78;28.79;96146.75;4949420;29;20569;-60
2023/06/14 08:14:35;;;;;;;7.55;3.92;;;;;;;26.32;29.25;96148.56;4939515;29;20641;-60
2023/06/14 08:17:01;;;;;;;3.60;3.30;;;;;;;26.30;28.53;96155.28;4939760;29;20207;-60
2023/06/14 08:19:28;;;;;;;5.43;3.45;;;;;;;26.68;28.40;96137.00;4948196;29;20241;-61
2023/06/14 08:21:55;;;;;;;5.15;3.15;;;;;;;26.93;27.18;96143.78;4950882;29;20218;-60
2023/06/14 08:24:24;;;;;;;3.60;3.30;;;;;;;26.69;27.00;96145.97;4939697;29;20234;-61
2023/06/14 08:26:50;;;;;;;5.85;3.63;;;;;;;26.92;26.72;96147.59;4950082;29;20222;-60
2023/06/14 08:29:17;;;;;;;7.65;3.60;;;;;;;27.08;27.31;96147.44;4942026;29;20271;-62
2023/06/14 08:31:45;;;;;;;8.50;4.40;;;;;;;27.23;28.07;96149.47;4941958;29;20207;-60
2023/06/14 08:34:11;;;;;;;20.15;5.53;;;;;;;26.96;28.12;96148.72;4951657;29;20293;-61
2023/06/14 08:36:38;;;;;;;4.63;3.50;;;;;;;26.98;28.96;96151.97;4947725;29;20233;-61
2023/06/14 08:39:05;;;;;;;8.10;4.13;;;;;;;27.38;28.15;96146.06;4944483;29;20211;-60
2023/06/14 08:41:32;;;;;;;16.80;6.03;;;;;;;27.63;28.26;96143.53;4940462;29;20211;-61
2023/06/14 08:43:58;;;;;;;4.88;3.45;;;;;;;27.28;25.76;96146.78;4956674;29;20226;-61
2023/06/14 08:46:27;;;;;;;5.32;3.40;;;;;;;27.24;26.83;96151.13;4945847;29;20235;-60
2023/06/14 08:48:56;;;;;;;5.68;3.70;;;;;;;27.05;27.42;96147.16;4955411;29;20214;-60
2023/06/14 08:51:23;;;;;;;3.45;3.20;;;;;;;27.19;27.09;96142.91;4952632;29;20215;-60
2023/06/14 08:53:54;;;;;;;6.68;3.80;;;;;;;27.30;26.02;96150.06;4959413;29;20210;-60
2023/06/14 08:56:21;;;;;;;3.72;3.28;;;;;;;27.53;27.89;96149.72;4961024;28;20217;-62
2023/06/14 08:58:49;;;;;;;6.63;3.40;;;;;;;27.12;25.55;96145.84;4941931;29;20278;-62
2023/06/14 09:01:17;;;;;;;4.85;3.60;;;;;;;27.28;27.02;96145.97;4953177;29;20206;-60
2023/06/14 09:03:44;;;;;;;8.00;4.00;;;;;;;27.45;26.64;96147.50;4954146;29;20668;-61
2023/06/14 09:06:14;;;;;;;7.10;3.80;;;;;;;27.48;25.70;96146.97;4946423;29;20213;-60
2023/06/14 09:08:43;;;;;;;3.88;3.50;;;;;;;27.30;25.87;96150.06;4942573;29;20270;-62
2023/06/14 09:11:12;;;;;;;3.55;3.25;;;;;;;27.53;26.13;96155.13;4941914;29;20309;-61
2023/06/14 09:13:38;;;;;;;6.13;3.42;;;;;;;27.14;25.26;96156.44;4940881;29;20655;-59
2023/06/14 09:16:05;;;;;;;6.85;3.60;;;;;;;27.41;25.81;96149.06;4950115;29;20199;-60
2023/06/14 09:18:40;;;;;;;5.85;3.30;;;;;;;27.32;25.70;96134.31;4947877;29;20207;-60
2023/06/14 09:21:08;;;;;;;3.33;3.05;;;;;;;27.21;26.73;96140.75;4946180;29;20212;-60
2023/06/14 09:23:38;;;;;;;3.95;3.47;;;;;;;27.42;25.89;96137.09;4938500;29;20312;-59
2023/06/14 09:26:07;;;;;;;4.00;3.50;;;;;;;27.68;25.21;96141.66;4947471;29;20234;-60
2023/06/14 09:28:34;;;;;;;4.07;3.40;;;;;;;27.36;26.89;96146.31;4939951;29;20226;-60
2023/06/14 09:31:01;;;;;;;5.10;3.53;;;;;;;27.57;26.29;96148.09;4946699;29;20218;-61
2023/06/14 09:33:27;;;;;;;6.75;3.58;;;;;;;27.92;27.10;96147.50;4940679;29;20207;-61
2023/06/14 09:35:55;;;;;;;4.05;3.35;;;;;;;28.22;26.59;96141.41;4940111;29;20202;-60
2023/06/14 09:38:21;;;;;;;4.45;2.95;;;;;;;28.28;26.69;96143.06;4939416;29;20219;-60
2023/06/14 09:40:50;;;;;;;3.70;3.40;;;;;;;28.46;25.96;96142.59;4953603;29;20676;-60
2023/06/14 09:43:18;;;;;;;3.42;3.13;;;;;;;28.46;25.04;96152.66;4947559;29;20226;-60
2023/06/14 09:45:45;;;;;;;3.75;3.35;;;;;;;27.98;24.57;96151.06;4940624;28;20609;-61
2023/06/14 09:48:17;;;;;;;5.55;3.47;;;;;;;28.21;25.45;96152.56;4941543;29;20705;-60
2023/06/14 09:50:45;;;;;;;3.35;3.10;;;;;;;28.27;26.22;96155.00;4943576;29;20553;-60
2023/06/14 09:53:12;;;;;;;4.00;3.25;;;;;;;28.55;26.03;96157.31;4956565;29;20203;-61
2023/06/14 09:55:42;;;;;;;6.10;3.25;;;;;;;28.11;25.40;96158.78;4948622;28;20234;-61
2023/06/14 09:58:13;;;;;;;3.28;3.03;;;;;;;27.59;25.65;96154.13;4945438;29;20293;-60
2023/06/14 10:00:40;;;;;;;3.70;3.40;;;;;;;28.01;25.18;96147.81;4945900;29;20214;-61
2023/06/14 10:03:13;;;;;;;5.47;3.35;;;;;;;28.01;25.81;96155.97;4964470;29;20230;-61
2023/06/14 10:05:41;;;;;;;4.72;3.70;;;;;;;28.14;24.87;96155.50;4946731;29;20640;-61
2023/06/14 10:08:10;;;;;;;3.72;3.35;;;;;;;28.21;24.77;96139.78;4947123;29;20342;-61
2023/06/14 10:10:37;;;;;;;4.00;3.50;;;;;;;28.21;25.52;96139.78;4958564;29;20221;-61
2023/06/14 10:13:03;;;;;;;3.63;3.20;;;;;;;27.90;24.74;96140.69;4956291;29;20202;-61
2023/06/14 10:15:34;;;;;;;3.45;3.25;;;;;;;27.59;23.80;96132.38;4956609;29;20206;-61
2023/06/14 10:18:10;;;;;;;3.83;3.53;;;;;;;28.22;25.41;96130.53;4956023;28;20215;-60
2023/06/14 10:20:43;;;;;;;3.65;3.35;;;;;;;28.48;24.94;96132.28;4956381;29;20206;-61
2023/06/14 10:23:11;;;;;;;3.60;3.30;;;;;;;28.10;25.13;96135.38;4956541;28;20229;-61
2023/06/14 10:25:40;;;;;;;3.72;3.50;;;;;;;28.43;24.87;96131.41;4956787;28;20214;-60
2023/06/14 10:28:17;;;;;;;4.03;3.40;;;;;;;28.71;25.04;96122.00;4956283;29;20540;-62
2023/06/14 10:31:09;;;;;;;3.80;3.45;;;;;;;28.48;24.70;96128.72;4956560;28;20198;-60
2023/06/14 10:33:37;;;;;;;9.30;8.50;;;;;;;28.59;24.27;96146.72;4957839;28;20261;-61
2023/06/14 10:36:11;;;;;;;5.53;3.50;;;;;;;28.64;23.41;96130.38;4954036;29;20218;-61
2023/06/14 10:38:37;;;;;;;3.40;3.10;;;;;;;28.48;23.33;96139.63;4956703;29;20214;-61
2023/06/14 10:41:05;;;;;;;3.60;3.30;;;;;;;28.73;24.97;96131.53;4955436;29;20214;-62
2023/06/14 10:43:31;;;;;;;3.80;3.25;;;;;;;27.87;23.95;96122.19;4956320;29;20245;-62
2023/06/14 10:46:21;;;;;;;4.65;3.22;;;;;;;28.49;24.10;96120.28;4957105;29;20281;-61
2023/06/14 10:48:48;;;;;;;5.18;3.30;;;;;;;28.77;24.79;96127.16;4958204;28;20273;-61
2023/06/14 10:51:20;;;;;;;3.58;3.28;;;;;;;28.91;24.00;96138.38;4955804;29;20214;-61
2023/06/14 10:53:46;;;;;;;3.80;3.50;;;;;;;29.01;23.88;96131.03;4956178;29;20300;-62
2023/06/14 10:56:26;;;;;;;3.38;3.10;;;;;;;28.97;23.48;96123.66;4952098;29;20213;-61
2023/06/14 10:58:52;;;;;;;3.83;3.50;;;;;;;29.07;23.88;96127.22;4942120;29;20206;-62
2023/06/14 11:01:30;;;;;;;4.03;3.33;;;;;;;28.83;23.99;96123.38;4937011;29;20306;-61
2023/06/14 11:03:57;;;;;;;5.15;3.60;;;;;;;28.56;23.08;96120.84;4937222;29;20229;-62
2023/06/14 11:06:24;;;;;;;4.22;3.30;;;;;;;28.70;23.35;96134.78;4944026;29;20216;-62
2023/06/14 11:09:13;;;;;;;3.22;2.92;;;;;;;28.28;22.27;96118.59;4937423;29;20210;-61
2023/06/14 11:11:43;;;;;;;4.10;3.80;;;;;;;27.89;22.99;96126.28;4936628;29;20246;-61
2023/06/14 11:14:09;;;;;;;5.03;3.22;;;;;;;28.13;22.57;96122.06;4947157;29;20206;-61
2023/06/14 11:16:37;;;;;;;4.22;3.50;;;;;;;28.48;23.27;96113.22;4949235;28;20648;-62
2023/06/14 11:19:04;;;;;;;3.33;3.03;;;;;;;28.83;23.06;96115.22;4949601;29;20221;-60
2023/06/14 11:21:33;;;;;;;3.58;3.30;;;;;;;28.54;22.33;96119.47;4943277;29;20211;-61
2023/06/14 11:23:59;;;;;;;3.53;3.25;;;;;;;28.45;23.13;96119.19;4944552;29;20683;-61
2023/06/14 11:26:27;;;;;;;5.20;3.47;;;;;;;28.33;22.86;96118.63;4936781;29;20576;-61
2023/06/14 11:28:56;;;;;;;3.30;3.10;;;;;;;28.11;22.38;96118.00;4948765;28;20213;-59
2023/06/14 11:31:23;;;;;;;3.28;3.08;;;;;;;28.14;23.36;96112.00;4939921;29;20207;-59
2023/06/14 11:33:52;;;;;;;3.70;3.42;;;;;;;28.46;23.78;96103.69;4940435;29;20226;-59
2023/06/14 11:36:18;;;;;;;4.40;3.00;;;;;;;28.19;22.54;96103.88;4940814;29;20222;-61